createdAt,value
2023-10-09T00:00:32.965Z,101039.59
2023-10-09T00:03:01.432Z,101042.88
2023-10-09T00:05:46.451Z,101022.72
2023-10-09T00:08:22.086Z,101041.78
2023-10-09T00:10:57.905Z,101036.56
2023-10-09T00:13:34.188Z,101039.06
2023-10-09T00:16:14.100Z,101041.84
2023-10-09T00:18:46.671Z,101032.03
2023-10-09T00:21:20.856Z,101030.28
2023-10-09T00:23:54.913Z,101013.38
2023-10-09T00:26:23.092Z,101024.63
2023-10-09T00:28:51.419Z,101003.59
2023-10-09T00:31:28.574Z,101036.78
2023-10-09T00:33:55.140Z,101023.53
2023-10-09T00:36:28.570Z,101002.59
2023-10-09T00:38:55.091Z,101026.13
2023-10-09T00:41:22.833Z,101026.06
2023-10-09T00:43:50.171Z,101012.16
2023-10-09T00:46:21.197Z,101010.34
2023-10-09T00:48:57.600Z,100987.38
2023-10-09T00:51:24.958Z,101003.19
2023-10-09T00:53:57.775Z,100998.56
2023-10-09T00:56:26.677Z,101013.38
2023-10-09T00:59:09.317Z,100990.81
2023-10-09T01:01:39.579Z,101031.78
2023-10-09T01:04:07.468Z,100999.41
2023-10-09T01:06:36.011Z,101003.69
2023-10-09T01:09:11.055Z,101025.41
2023-10-09T01:11:48.911Z,101009.66
2023-10-09T01:14:17.453Z,100990.69
2023-10-09T01:16:44.250Z,100995.13
2023-10-09T01:19:25.706Z,101025.56
2023-10-09T01:21:52.025Z,101018.53
2023-10-09T01:24:18.918Z,101011.81
2023-10-09T01:26:44.986Z,101006.53
2023-10-09T01:29:15.394Z,101010.13
2023-10-09T01:31:47.258Z,101023.97
2023-10-09T01:34:13.636Z,101030.09
2023-10-09T01:36:40.142Z,101010.00
2023-10-09T01:39:21.834Z,101028.38
2023-10-09T01:41:50.199Z,101004.84
2023-10-09T01:44:16.744Z,101026.66
2023-10-09T01:46:46.383Z,101005.63
2023-10-09T01:49:21.958Z,101013.41
2023-10-09T01:51:51.181Z,101022.19
2023-10-09T01:54:33.808Z,101022.19
2023-10-09T01:57:05.968Z,101037.13
2023-10-09T01:59:38.443Z,101024.16
2023-10-09T02:02:16.403Z,101045.19
2023-10-09T02:04:42.300Z,101045.03
2023-10-09T02:07:09.163Z,101044.13
2023-10-09T02:09:35.947Z,101043.13
2023-10-09T02:12:02.461Z,101014.25
2023-10-09T02:14:28.719Z,101028.97
2023-10-09T02:17:03.575Z,101009.13
2023-10-09T02:19:40.953Z,101025.63
2023-10-09T02:22:16.149Z,100992.38
2023-10-09T02:24:49.426Z,100994.09
2023-10-09T02:27:20.440Z,101026.31
2023-10-09T02:29:47.741Z,101011.31
2023-10-09T02:32:26.087Z,101024.56
2023-10-09T02:34:54.058Z,101018.16
2023-10-09T02:37:25.562Z,100982.53
2023-10-09T02:39:53.084Z,100999.13
2023-10-09T02:42:26.684Z,101018.25
2023-10-09T02:44:52.934Z,101014.81
2023-10-09T02:47:29.857Z,100983.38
2023-10-09T02:50:06.936Z,100990.22
2023-10-09T02:52:40.719Z,100956.88
2023-10-09T02:55:14.082Z,100961.22
2023-10-09T02:57:42.134Z,100973.34
2023-10-09T03:00:19.532Z,100976.03
2023-10-09T03:02:49.364Z,101001.34
2023-10-09T03:05:15.398Z,100990.75
2023-10-09T03:07:41.345Z,100979.59
2023-10-09T03:10:09.912Z,101005.66
2023-10-09T03:12:36.838Z,100990.75
2023-10-09T03:15:06.263Z,100962.53
2023-10-09T03:17:34.711Z,100984.44
2023-10-09T03:20:14.300Z,100961.00
2023-10-09T03:22:43.067Z,100983.41
2023-10-09T03:25:14.229Z,100978.97
2023-10-09T03:27:45.500Z,100946.75
2023-10-09T03:30:25.437Z,100968.47
2023-10-09T03:32:53.009Z,100960.47
2023-10-09T03:35:24.792Z,100961.34
2023-10-09T03:37:57.311Z,100954.25
2023-10-09T03:40:25.274Z,100981.38
2023-10-09T03:42:51.576Z,100964.91
2023-10-09T03:45:28.064Z,100988.41
2023-10-09T03:48:23.759Z,100971.66
2023-10-09T03:51:06.861Z,100967.31
2023-10-09T03:53:32.801Z,100966.44
2023-10-09T03:55:59.551Z,100970.47
2023-10-09T03:58:31.063Z,100976.66
2023-10-09T04:00:57.063Z,100955.69
2023-10-09T04:03:23.038Z,100967.91
2023-10-09T04:05:52.159Z,100957.34
2023-10-09T04:08:20.311Z,100972.22
2023-10-09T04:10:55.904Z,100972.22
2023-10-09T04:13:23.451Z,100967.84
2023-10-09T04:15:52.560Z,100971.19
2023-10-09T04:18:28.501Z,100958.00
2023-10-09T04:21:13.109Z,100965.75
2023-10-09T04:24:07.950Z,100967.75
2023-10-09T04:26:35.415Z,100930.19
2023-10-09T04:29:02.665Z,100955.19
2023-10-09T04:31:37.764Z,100955.00
2023-10-09T04:34:23.705Z,100932.31
2023-10-09T04:37:01.080Z,100940.84
2023-10-09T04:39:30.496Z,100934.66
2023-10-09T04:42:16.011Z,100943.44
2023-10-09T04:45:00.528Z,100937.25
2023-10-09T04:47:36.332Z,100926.84
2023-10-09T04:50:12.278Z,100931.22
2023-10-09T04:52:38.732Z,100928.38
2023-10-09T04:55:18.078Z,100931.88
2023-10-09T04:57:46.331Z,100918.75
2023-10-09T05:00:43.168Z,100910.03
2023-10-09T05:03:13.036Z,100919.59
2023-10-09T05:05:43.165Z,100888.91
2023-10-09T05:08:20.296Z,100879.16
2023-10-09T05:10:59.563Z,100900.03
2023-10-09T05:13:42.314Z,100903.59
2023-10-09T05:16:33.591Z,100918.47
2023-10-09T05:19:08.729Z,100900.94
2023-10-09T05:21:42.522Z,100896.47
2023-10-09T05:24:15.878Z,100902.72
2023-10-09T05:26:49.481Z,100898.53
2023-10-09T05:29:35.011Z,100896.72
2023-10-09T05:32:05.296Z,100904.38
2023-10-09T05:34:35.172Z,100892.91
2023-10-09T05:37:18.133Z,100918.44
2023-10-09T05:40:02.420Z,100904.59
2023-10-09T05:42:42.041Z,100901.84
2023-10-09T05:45:19.308Z,100916.22
2023-10-09T05:48:04.174Z,100948.53
2023-10-09T05:50:38.425Z,100930.25
2023-10-09T05:53:07.066Z,100935.28
2023-10-09T05:55:58.688Z,100918.47
2023-10-09T05:59:02.646Z,100913.91
2023-10-09T06:01:47.191Z,100904.41
2023-10-09T06:04:16.025Z,100917.38
2023-10-09T06:06:45.843Z,100908.50
2023-10-09T06:09:13.812Z,100893.34
2023-10-09T06:11:49.447Z,100870.78
2023-10-09T06:14:25.663Z,100897.69
2023-10-09T06:16:57.364Z,100875.09
2023-10-09T06:19:27.760Z,100859.31
2023-10-09T06:22:17.821Z,100860.72
2023-10-09T06:24:55.061Z,100869.31
2023-10-09T06:27:47.048Z,100877.97
2023-10-09T06:30:13.140Z,100877.00
2023-10-09T06:32:50.902Z,100873.41
2023-10-09T06:35:30.851Z,100851.56
2023-10-09T06:38:04.232Z,100881.16
2023-10-09T06:40:53.307Z,100853.22
2023-10-09T06:43:23.482Z,100883.78
2023-10-09T06:45:55.330Z,100861.00
2023-10-09T06:48:34.367Z,100866.97
2023-10-09T06:51:08.265Z,100862.78
2023-10-09T06:53:53.215Z,100872.28
2023-10-09T06:56:25.765Z,100870.22
2023-10-09T06:58:55.631Z,100857.97
2023-10-09T07:01:28.159Z,100864.03
2023-10-09T07:04:00.334Z,100857.84
2023-10-09T07:06:36.261Z,100841.94
2023-10-09T07:09:05.822Z,100824.25
2023-10-09T07:11:42.296Z,100830.91
2023-10-09T07:14:31.710Z,100841.41
2023-10-09T07:17:04.681Z,100811.53
2023-10-09T07:19:34.877Z,100832.13
2023-10-09T07:22:03.420Z,100841.41
2023-10-09T07:24:43.641Z,100837.75
2023-10-09T07:27:14.293Z,100832.53
2023-10-09T07:29:49.972Z,100831.34
2023-10-09T07:32:22.600Z,100816.28
2023-10-09T07:34:57.757Z,100762.94
2023-10-09T07:37:24.825Z,100755.03
2023-10-09T07:39:58.244Z,100775.75
2023-10-09T07:42:43.986Z,100762.09
2023-10-09T07:45:21.957Z,100760.34
2023-10-09T07:48:00.347Z,100756.22
2023-10-09T07:50:50.415Z,100736.81
2023-10-09T07:53:19.458Z,100706.69
2023-10-09T07:55:56.348Z,100732.56
2023-10-09T07:58:26.117Z,100737.44
2023-10-09T08:00:59.085Z,100727.03
2023-10-09T08:03:25.803Z,100723.91
2023-10-09T08:06:07.190Z,100729.56
2023-10-09T08:08:38.952Z,100729.94
2023-10-09T08:11:40.533Z,100736.25
2023-10-09T08:14:25.636Z,100716.16
2023-10-09T08:17:11.941Z,100700.94
2023-10-09T08:19:53.724Z,100714.19
2023-10-09T08:22:30.256Z,100695.41
2023-10-09T08:24:56.723Z,100679.34
2023-10-09T08:27:32.367Z,100662.53
2023-10-09T08:30:18.643Z,100684.56
2023-10-09T08:35:31.607Z,100693.88
2023-10-09T08:37:59.816Z,100661.16
2023-10-09T08:40:39.423Z,100686.25
2023-10-09T08:43:18.633Z,100639.06
2023-10-09T08:45:52.451Z,100677.81
2023-10-09T08:48:18.979Z,100676.69
2023-10-09T08:50:47.290Z,100659.34
2023-10-09T08:53:14.153Z,100669.38
2023-10-09T08:55:41.375Z,100659.72
2023-10-09T08:58:16.324Z,100662.44
2023-10-09T09:00:46.276Z,100671.75
2023-10-09T09:03:16.255Z,100677.47
2023-10-09T09:05:46.792Z,100663.97
2023-10-09T09:08:26.566Z,100645.94
2023-10-09T09:11:11.848Z,100619.16
2023-10-09T09:13:48.879Z,100632.44
2023-10-09T09:16:18.669Z,100637.63
2023-10-09T09:18:56.763Z,100631.72
2023-10-09T09:21:23.010Z,100630.38
2023-10-09T09:23:58.007Z,100638.38
2023-10-09T09:26:38.596Z,100641.25
2023-10-09T09:29:06.161Z,100640.25
2023-10-09T09:31:38.519Z,100615.41
2023-10-09T09:34:13.616Z,100614.53
2023-10-09T09:36:59.772Z,100620.88
2023-10-09T09:39:38.545Z,100613.66
2023-10-09T09:42:14.130Z,100612.06
2023-10-09T09:44:49.096Z,100626.56
2023-10-09T09:47:27.404Z,100605.22
2023-10-09T09:50:00.277Z,100578.44
2023-10-09T09:52:38.397Z,100590.25
2023-10-09T09:55:05.855Z,100585.91
2023-10-09T09:57:39.982Z,100590.47
2023-10-09T10:00:18.335Z,100606.25
2023-10-09T10:02:45.748Z,100593.78
2023-10-09T10:05:16.128Z,100582.25
2023-10-09T10:07:43.700Z,100576.19
2023-10-09T10:10:34.979Z,100578.09
2023-10-09T10:13:01.862Z,100552.69
2023-10-09T10:15:57.230Z,100548.28
2023-10-09T10:18:32.504Z,100500.81
2023-10-09T10:21:14.945Z,100489.03
2023-10-09T10:23:40.934Z,100537.81
2023-10-09T10:26:30.745Z,100520.25
2023-10-09T10:29:24.576Z,100502.19
2023-10-09T10:31:55.569Z,100496.00
2023-10-09T10:34:24.841Z,100473.06
2023-10-09T10:36:58.661Z,100459.81
2023-10-09T10:39:43.214Z,100492.06
2023-10-09T10:42:14.565Z,100490.13
2023-10-09T10:44:44.490Z,100451.31
2023-10-09T10:47:25.522Z,100460.38
2023-10-09T10:49:52.689Z,100457.63
2023-10-09T10:52:23.015Z,100458.25
2023-10-09T10:55:20.023Z,100422.22
2023-10-09T10:58:01.378Z,100443.00
2023-10-09T11:00:47.413Z,100429.72
2023-10-09T11:03:36.181Z,100442.31
2023-10-09T11:06:14.474Z,100448.16
2023-10-09T11:08:54.665Z,100425.28
2023-10-09T11:11:21.448Z,100380.75
2023-10-09T11:13:54.606Z,100365.59
2023-10-09T11:16:42.132Z,100420.28
2023-10-09T11:19:35.884Z,100451.66
2023-10-09T11:22:08.521Z,100408.72
2023-10-09T11:24:35.982Z,100423.63
2023-10-09T11:27:06.638Z,100413.56
2023-10-09T11:29:42.847Z,100388.81
2023-10-09T11:32:11.741Z,100418.56
2023-10-09T11:34:37.682Z,100399.59
2023-10-09T11:37:13.549Z,100380.66
2023-10-09T11:39:58.486Z,100426.56
2023-10-09T11:42:49.001Z,100412.59
2023-10-09T11:45:28.688Z,100435.94
2023-10-09T11:48:04.285Z,100446.78
2023-10-09T11:50:51.838Z,100443.19
2023-10-09T11:53:25.031Z,100442.09
2023-10-09T11:55:53.604Z,100420.41
2023-10-09T11:58:23.433Z,100424.78
2023-10-09T12:00:59.947Z,100407.78
2023-10-09T12:03:30.212Z,100385.88
2023-10-09T12:06:12.628Z,100386.06
2023-10-09T12:08:41.776Z,100400.34
2023-10-09T12:11:12.201Z,100405.41
2023-10-09T12:13:39.148Z,100361.75
2023-10-09T12:16:11.522Z,100366.16
2023-10-09T12:18:39.645Z,100337.16
2023-10-09T12:21:06.834Z,100335.63
2023-10-09T12:23:36.023Z,100332.84
2023-10-09T12:26:04.537Z,100357.13
2023-10-09T12:28:33.331Z,100364.13
2023-10-09T12:31:01.566Z,100342.69
2023-10-09T12:33:30.241Z,100361.81
2023-10-09T12:36:00.477Z,100331.31
2023-10-09T12:38:33.135Z,100326.47
2023-10-09T12:41:18.489Z,100326.09
2023-10-09T12:43:44.383Z,100311.56
2023-10-09T12:46:10.239Z,100348.84
2023-10-09T12:48:36.695Z,100347.03
2023-10-09T12:51:06.569Z,100342.53
2023-10-09T12:53:34.104Z,100345.72
2023-10-09T12:56:00.205Z,100343.22
2023-10-09T12:58:27.276Z,100316.75
2023-10-09T13:00:53.560Z,100319.63
2023-10-09T13:03:20.356Z,100310.66
2023-10-09T13:05:52.682Z,100308.53
2023-10-09T13:08:21.723Z,100273.16
2023-10-09T13:10:59.716Z,100332.78
2023-10-09T13:13:40.143Z,100330.03
2023-10-09T13:16:25.633Z,100309.50
2023-10-09T13:18:54.230Z,100296.47
2023-10-09T13:21:26.754Z,100312.06
2023-10-09T13:23:55.062Z,100294.00
2023-10-09T13:26:33.024Z,100303.09
2023-10-09T13:29:01.764Z,100305.19
2023-10-09T13:31:27.936Z,100304.34
2023-10-09T13:33:55.567Z,100307.97
2023-10-09T13:36:28.535Z,100303.16
2023-10-09T13:38:55.412Z,100295.50
2023-10-09T13:41:22.010Z,100311.72
2023-10-09T13:43:48.164Z,100300.53
2023-10-09T13:46:17.935Z,100306.56
2023-10-09T13:48:45.690Z,100304.84
2023-10-09T13:51:17.927Z,100297.47
2023-10-09T13:53:48.151Z,100293.28
2023-10-09T13:56:21.291Z,100298.53
2023-10-09T13:58:51.913Z,100294.13
2023-10-09T14:01:27.573Z,100287.53
2023-10-09T14:03:59.940Z,100292.22
2023-10-09T14:06:31.248Z,100285.69
2023-10-09T14:09:05.651Z,100279.69
2023-10-09T14:11:32.448Z,100273.47
2023-10-09T14:14:11.357Z,100264.19
2023-10-09T14:16:43.252Z,100287.56
2023-10-09T14:19:13.475Z,100257.13
2023-10-09T14:21:40.736Z,100263.50
2023-10-09T14:24:19.350Z,100270.25
2023-10-09T14:26:47.351Z,100254.03
2023-10-09T14:29:17.226Z,100270.22
2023-10-09T14:31:44.199Z,100288.94
2023-10-09T14:34:10.116Z,100272.16
2023-10-09T14:36:36.542Z,100287.69
2023-10-09T14:39:04.955Z,100273.03
2023-10-09T14:41:33.575Z,100276.81
2023-10-09T14:43:59.557Z,100285.75
2023-10-09T14:46:29.166Z,100268.66
2023-10-09T14:48:55.610Z,100274.75
2023-10-09T14:51:28.508Z,100266.91
2023-10-09T14:54:03.527Z,100296.78
2023-10-09T14:56:29.532Z,100274.75
2023-10-09T14:58:59.395Z,100282.81
2023-10-09T15:01:31.790Z,100251.72
2023-10-09T15:04:00.136Z,100246.09
2023-10-09T15:06:30.610Z,100246.09
2023-10-09T15:09:08.584Z,100255.91
2023-10-09T15:11:34.676Z,100258.47
2023-10-09T15:14:00.798Z,100235.06
2023-10-09T15:16:27.583Z,100245.69
2023-10-09T15:18:55.046Z,100242.09
2023-10-09T15:21:26.789Z,100238.16
2023-10-09T15:23:59.536Z,100250.22
2023-10-09T15:26:25.616Z,100232.81
2023-10-09T15:28:52.320Z,100232.78
2023-10-09T15:31:19.389Z,100233.78
2023-10-09T15:33:48.025Z,100231.59
2023-10-09T15:36:15.006Z,100238.31
2023-10-09T15:38:41.102Z,100242.09
2023-10-09T15:41:07.135Z,100243.31
2023-10-09T15:43:35.222Z,100239.72
2023-10-09T15:46:02.098Z,100227.34
2023-10-09T15:48:28.251Z,100232.50
2023-10-09T15:50:54.489Z,100216.84
2023-10-09T15:53:22.063Z,100215.50
2023-10-09T15:55:52.404Z,100224.84
2023-10-09T15:58:18.202Z,100207.03
2023-10-09T16:00:46.815Z,100205.06
2023-10-09T16:03:14.432Z,100229.78
2023-10-09T16:05:41.336Z,100216.34
2023-10-09T16:08:08.592Z,100236.22
2023-10-09T16:10:35.213Z,100234.25
2023-10-09T16:13:01.111Z,100228.47
2023-10-09T16:15:28.330Z,100228.56
2023-10-09T16:18:03.508Z,100243.63
2023-10-09T16:20:32.058Z,100227.00
2023-10-09T16:22:59.610Z,100204.81
2023-10-09T16:25:27.017Z,100219.56
2023-10-09T16:27:55.087Z,100250.06
2023-10-09T16:30:21.551Z,100237.66
2023-10-09T16:32:51.363Z,100234.38
2023-10-09T16:35:17.828Z,100203.41
2023-10-09T16:37:44.004Z,100256.31
2023-10-09T16:40:14.004Z,100239.88
2023-10-09T16:42:42.715Z,100234.69
2023-10-09T16:45:12.627Z,100259.31
2023-10-09T16:47:39.234Z,100252.41
2023-10-09T16:50:12.265Z,100256.94
2023-10-09T16:52:38.662Z,100267.53
2023-10-09T16:55:11.459Z,100244.28
2023-10-09T16:57:39.686Z,100251.19
2023-10-09T17:00:13.254Z,100266.00
2023-10-09T17:02:41.001Z,100254.16
2023-10-09T17:05:28.106Z,100277.97
2023-10-09T17:07:56.974Z,100251.84
2023-10-09T17:10:28.532Z,100265.69
2023-10-09T17:12:55.421Z,100249.41
2023-10-09T17:15:21.484Z,100267.63
2023-10-09T17:17:51.169Z,100253.88
2023-10-09T17:20:18.503Z,100271.94
2023-10-09T17:22:46.830Z,100279.78
2023-10-09T17:25:13.629Z,100262.84
2023-10-09T17:27:41.134Z,100251.50
2023-10-09T17:30:10.843Z,100249.63
2023-10-09T17:32:37.569Z,100251.03
2023-10-09T17:35:08.802Z,100228.38
2023-10-09T17:37:40.008Z,100216.72
2023-10-09T17:40:09.435Z,100218.44
2023-10-09T17:42:35.933Z,100211.16
2023-10-09T17:45:05.246Z,100218.13
2023-10-09T17:47:37.450Z,100212.25
2023-10-09T17:50:13.153Z,100213.75
2023-10-09T17:52:39.704Z,100239.00
2023-10-09T17:55:11.560Z,100234.53
2023-10-09T17:57:40.415Z,100233.09
2023-10-09T18:00:22.322Z,100204.50
2023-10-09T18:02:49.297Z,100229.22
2023-10-09T18:05:15.379Z,100231.25
2023-10-09T18:07:44.055Z,100210.13
2023-10-09T18:10:10.884Z,100226.38
2023-10-09T18:12:39.006Z,100211.50
2023-10-09T18:15:05.850Z,100211.84
2023-10-09T18:17:35.662Z,100231.72
2023-10-09T18:20:01.643Z,100206.69
2023-10-09T18:22:29.200Z,100205.03
2023-10-09T18:24:55.885Z,100244.09
2023-10-09T18:27:22.783Z,100240.22
2023-10-09T18:29:48.774Z,100245.97
2023-10-09T18:32:15.542Z,100230.59
2023-10-09T18:34:41.669Z,100240.81
2023-10-09T18:37:08.437Z,100227.84
2023-10-09T18:39:39.285Z,100231.97
2023-10-09T18:42:07.288Z,100259.16
2023-10-09T18:44:35.906Z,100267.94
2023-10-09T18:47:01.751Z,100251.94
2023-10-09T18:49:28.727Z,100245.03
2023-10-09T18:51:55.976Z,100239.88
2023-10-09T18:54:23.412Z,100233.75
2023-10-09T18:56:49.723Z,100237.03
2023-10-09T18:59:15.979Z,100245.56
2023-10-09T19:01:42.039Z,100236.94
2023-10-09T19:04:09.009Z,100228.16
2023-10-09T19:06:38.396Z,100251.47
2023-10-09T19:09:07.358Z,100235.13
2023-10-09T19:11:33.832Z,100249.75
2023-10-09T19:14:01.027Z,100248.66
2023-10-09T19:16:28.139Z,100224.41
2023-10-09T19:18:54.101Z,100222.50
2023-10-09T19:21:23.040Z,100223.75
2023-10-09T19:23:48.970Z,100240.81
2023-10-09T19:26:14.992Z,100244.34
2023-10-09T19:28:43.576Z,100216.63
2023-10-09T19:31:11.521Z,100229.56
2023-10-09T19:33:38.513Z,100221.81
2023-10-09T19:36:11.682Z,100215.06
2023-10-09T19:38:40.594Z,100240.31
2023-10-09T19:41:09.486Z,100253.63
2023-10-09T19:43:37.015Z,100238.06
2023-10-09T19:46:04.053Z,100262.00
2023-10-09T19:48:33.430Z,100250.28
2023-10-09T19:51:07.278Z,100276.13
2023-10-09T19:53:36.743Z,100279.31
2023-10-09T19:56:03.116Z,100245.19
2023-10-09T19:58:29.752Z,100270.44
2023-10-09T20:00:57.987Z,100290.66
2023-10-09T20:03:23.860Z,100289.31
2023-10-09T20:05:50.300Z,100269.78
2023-10-09T20:08:17.086Z,100270.34
2023-10-09T20:10:43.480Z,100302.13
2023-10-09T20:13:12.825Z,100288.47
2023-10-09T20:15:46.195Z,100289.69
2023-10-09T20:18:12.439Z,100276.41
2023-10-09T20:20:39.379Z,100290.22
2023-10-09T20:23:08.324Z,100281.44
2023-10-09T20:25:34.539Z,100293.78
2023-10-09T20:28:00.338Z,100290.91
2023-10-09T20:30:26.211Z,100290.56
2023-10-09T20:32:55.325Z,100315.75
2023-10-09T20:35:27.030Z,100308.03
2023-10-09T20:37:55.318Z,100316.50
2023-10-09T20:40:24.611Z,100323.19
2023-10-09T20:42:51.075Z,100290.13
2023-10-09T20:45:22.085Z,100293.50
2023-10-09T20:47:55.625Z,100331.16
2023-10-09T20:50:22.492Z,100319.47
2023-10-09T20:52:49.326Z,100325.84
2023-10-09T20:55:25.145Z,100308.91
2023-10-09T20:57:59.028Z,100324.97
2023-10-09T21:00:27.112Z,100323.66
2023-10-09T21:02:55.254Z,100314.22
2023-10-09T21:05:23.818Z,100307.44
2023-10-09T21:07:53.383Z,100331.72
2023-10-09T21:10:21.249Z,100325.41
2023-10-09T21:12:51.723Z,100327.06
2023-10-09T21:15:20.896Z,100308.03
2023-10-09T21:17:47.483Z,100300.00
2023-10-09T21:20:17.566Z,100326.56
2023-10-09T21:22:49.545Z,100311.03
2023-10-09T21:25:20.588Z,100309.91
2023-10-09T21:27:47.310Z,100295.22
2023-10-09T21:30:15.997Z,100300.31
2023-10-09T21:32:42.755Z,100322.59
2023-10-09T21:35:18.076Z,100302.91
2023-10-09T21:37:52.625Z,100325.84
2023-10-09T21:40:29.456Z,100311.69
2023-10-09T21:42:57.252Z,100335.75
2023-10-09T21:45:24.107Z,100315.13
2023-10-09T21:47:55.656Z,100332.03
2023-10-09T21:50:26.693Z,100305.53
2023-10-09T21:52:57.493Z,100338.31
2023-10-09T21:55:24.452Z,100336.72
2023-10-09T21:57:51.076Z,100347.47
2023-10-09T22:00:18.857Z,100331.66
2023-10-09T22:02:47.704Z,100344.88
2023-10-09T22:05:20.986Z,100345.19
2023-10-09T22:07:49.756Z,100346.84
2023-10-09T22:10:15.828Z,100349.63
2023-10-09T22:12:47.351Z,100335.94
2023-10-09T22:15:19.922Z,100350.56
2023-10-09T22:17:46.863Z,100333.44
2023-10-09T22:20:20.649Z,100349.03
2023-10-09T22:22:48.339Z,100335.78
2023-10-09T22:25:15.027Z,100356.75
2023-10-09T22:27:42.151Z,100346.50
2023-10-09T22:30:12.757Z,100340.13
2023-10-09T22:32:42.449Z,100334.16
2023-10-09T22:35:14.253Z,100347.44
2023-10-09T22:37:43.291Z,100357.94
2023-10-09T22:40:26.464Z,100355.06
2023-10-09T22:42:53.504Z,100326.03
2023-10-09T22:45:32.313Z,100357.41
2023-10-09T22:47:59.050Z,100341.06
2023-10-09T22:50:35.024Z,100332.91
2023-10-09T22:53:11.597Z,100348.66
2023-10-09T22:55:44.443Z,100345.06
2023-10-09T22:58:15.898Z,100341.53
2023-10-09T23:00:49.332Z,100312.59
2023-10-09T23:03:26.215Z,100336.78
2023-10-09T23:06:11.850Z,100323.22
2023-10-09T23:08:42.199Z,100321.03
2023-10-09T23:11:14.449Z,100337.19
2023-10-09T23:13:53.986Z,100332.94
2023-10-09T23:16:35.807Z,100341.31
2023-10-09T23:19:04.161Z,100351.66
2023-10-09T23:21:34.714Z,100362.56
2023-10-09T23:24:09.402Z,100366.19
2023-10-09T23:26:52.406Z,100365.16
2023-10-09T23:29:33.442Z,100368.66
2023-10-09T23:32:19.765Z,100367.41
2023-10-09T23:34:59.831Z,100357.31
2023-10-09T23:37:38.194Z,100367.69
2023-10-09T23:40:26.081Z,100354.84
2023-10-09T23:42:57.732Z,100346.22
2023-10-09T23:45:31.699Z,100329.44
2023-10-09T23:47:59.377Z,100344.97
2023-10-09T23:50:30.189Z,100357.06
2023-10-09T23:52:58.020Z,100354.16
2023-10-09T23:55:29.129Z,100348.72
2023-10-09T23:57:58.932Z,100334.13
